sensor_id;sensor_type;location;lat;lon;timestamp;P1;durP1;ratioP1;P2;durP2;ratioP2
8656;SDS011;4366;50.764;7.184;2022-08-07T00:01:00;2.13;;;2.00;;
8656;SDS011;4366;50.764;7.184;2022-08-07T00:06:21;1.90;;;1.80;;
8656;SDS011;4366;50.764;7.184;2022-08-07T00:11:33;1.60;;;1.57;;
8656;SDS011;4366;50.764;7.184;2022-08-07T00:16:48;1.13;;;0.73;;
8656;SDS011;4366;50.764;7.184;2022-08-07T00:21:50;1.07;;;1.00;;
8656;SDS011;4366;50.764;7.184;2022-08-07T00:27:02;0.80;;;0.80;;
8656;SDS011;4366;50.764;7.184;2022-08-07T00:32:09;0.80;;;0.80;;
8656;SDS011;4366;50.764;7.184;2022-08-07T00:37:14;1.07;;;0.93;;
8656;SDS011;4366;50.764;7.184;2022-08-07T00:42:16;0.80;;;0.80;;
8656;SDS011;4366;50.764;7.184;2022-08-07T00:47:25;0.80;;;0.80;;
8656;SDS011;4366;50.764;7.184;2022-08-07T00:52:47;0.97;;;0.97;;
8656;SDS011;4366;50.764;7.184;2022-08-07T00:57:48;1.00;;;1.00;;
8656;SDS011;4366;50.764;7.184;2022-08-07T01:02:56;1.00;;;1.00;;
8656;SDS011;4366;50.764;7.184;2022-08-07T01:07:58;0.87;;;0.87;;
8656;SDS011;4366;50.764;7.184;2022-08-07T01:13:00;0.90;;;0.90;;
8656;SDS011;4366;50.764;7.184;2022-08-07T01:18:03;0.90;;;0.90;;
8656;SDS011;4366;50.764;7.184;2022-08-07T01:23:05;1.00;;;1.00;;
8656;SDS011;4366;50.764;7.184;2022-08-07T01:28:13;1.07;;;1.07;;
8656;SDS011;4366;50.764;7.184;2022-08-07T01:33:15;1.03;;;1.03;;
8656;SDS011;4366;50.764;7.184;2022-08-07T01:38:18;1.27;;;1.27;;
8656;SDS011;4366;50.764;7.184;2022-08-07T01:43:28;1.23;;;1.17;;
8656;SDS011;4366;50.764;7.184;2022-08-07T01:48:39;1.10;;;1.10;;
8656;SDS011;4366;50.764;7.184;2022-08-07T01:53:57;1.20;;;1.10;;
8656;SDS011;4366;50.764;7.184;2022-08-07T01:59:20;1.20;;;1.20;;
8656;SDS011;4366;50.764;7.184;2022-08-07T02:04:39;1.00;;;1.00;;
8656;SDS011;4366;50.764;7.184;2022-08-07T02:09:58;1.10;;;1.10;;
8656;SDS011;4366;50.764;7.184;2022-08-07T02:15:01;1.40;;;1.30;;
8656;SDS011;4366;50.764;7.184;2022-08-07T02:20:10;1.27;;;1.27;;
8656;SDS011;4366;50.764;7.184;2022-08-07T02:25:24;1.00;;;1.00;;
8656;SDS011;4366;50.764;7.184;2022-08-07T02:30:47;1.30;;;1.30;;
8656;SDS011;4366;50.764;7.184;2022-08-07T02:35:51;1.70;;;1.30;;
8656;SDS011;4366;50.764;7.184;2022-08-07T02:41:13;1.10;;;1.10;;
8656;SDS011;4366;50.764;7.184;2022-08-07T02:46:23;1.23;;;1.23;;
8656;SDS011;4366;50.764;7.184;2022-08-07T02:51:27;2.60;;;1.30;;
8656;SDS011;4366;50.764;7.184;2022-08-07T02:56:49;1.23;;;1.20;;
8656;SDS011;4366;50.764;7.184;2022-08-07T03:01:52;1.40;;;1.30;;
8656;SDS011;4366;50.764;7.184;2022-08-07T03:06:56;1.13;;;1.13;;
8656;SDS011;4366;50.764;7.184;2022-08-07T03:12:07;1.30;;;1.30;;
8656;SDS011;4366;50.764;7.184;2022-08-07T03:17:25;1.20;;;1.20;;
8656;SDS011;4366;50.764;7.184;2022-08-07T03:22:28;1.50;;;1.40;;
8656;SDS011;4366;50.764;7.184;2022-08-07T03:27:31;1.40;;;1.33;;
8656;SDS011;4366;50.764;7.184;2022-08-07T03:32:54;1.70;;;1.60;;
8656;SDS011;4366;50.764;7.184;2022-08-07T03:38:05;1.40;;;1.40;;
8656;SDS011;4366;50.764;7.184;2022-08-07T03:43:13;1.60;;;1.60;;
8656;SDS011;4366;50.764;7.184;2022-08-07T03:48:21;1.60;;;1.53;;
8656;SDS011;4366;50.764;7.184;2022-08-07T03:53:26;1.40;;;1.40;;
8656;SDS011;4366;50.764;7.184;2022-08-07T03:58:49;1.40;;;1.40;;
8656;SDS011;4366;50.764;7.184;2022-08-07T04:04:15;1.30;;;1.30;;
8656;SDS011;4366;50.764;7.184;2022-08-07T04:09:21;1.47;;;1.40;;
8656;SDS011;4366;50.764;7.184;2022-08-07T04:14:27;1.87;;;1.77;;
8656;SDS011;4366;50.764;7.184;2022-08-07T04:19:45;1.50;;;1.40;;
8656;SDS011;4366;50.764;7.184;2022-08-07T04:24:56;1.90;;;1.80;;
8656;SDS011;4366;50.764;7.184;2022-08-07T04:30:02;1.40;;;1.30;;
8656;SDS011;4366;50.764;7.184;2022-08-07T04:35:29;1.40;;;1.30;;
8656;SDS011;4366;50.764;7.184;2022-08-07T04:40:40;1.50;;;1.40;;
8656;SDS011;4366;50.764;7.184;2022-08-07T04:51:06;4.17;;;1.60;;
8656;SDS011;4366;50.764;7.184;2022-08-07T04:56:18;1.80;;;1.70;;
8656;SDS011;4366;50.764;7.184;2022-08-07T05:01:57;1.60;;;1.53;;
8656;SDS011;4366;50.764;7.184;2022-08-07T05:07:30;1.67;;;1.57;;
8656;SDS011;4366;50.764;7.184;2022-08-07T05:12:51;1.87;;;1.77;;
8656;SDS011;4366;50.764;7.184;2022-08-07T05:18:23;1.50;;;1.50;;
8656;SDS011;4366;50.764;7.184;2022-08-07T05:23:31;1.40;;;1.40;;
8656;SDS011;4366;50.764;7.184;2022-08-07T05:28:36;1.80;;;1.70;;
8656;SDS011;4366;50.764;7.184;2022-08-07T05:33:42;1.50;;;1.50;;
8656;SDS011;4366;50.764;7.184;2022-08-07T05:39:06;1.50;;;1.40;;
8656;SDS011;4366;50.764;7.184;2022-08-07T05:44:33;1.50;;;1.40;;
8656;SDS011;4366;50.764;7.184;2022-08-07T05:49:36;1.63;;;1.60;;
8656;SDS011;4366;50.764;7.184;2022-08-07T05:54:43;1.30;;;1.30;;
8656;SDS011;4366;50.764;7.184;2022-08-07T05:59:57;1.30;;;1.30;;
8656;SDS011;4366;50.764;7.184;2022-08-07T06:05:12;1.30;;;1.20;;
8656;SDS011;4366;50.764;7.184;2022-08-07T06:10:18;1.27;;;1.23;;
8656;SDS011;4366;50.764;7.184;2022-08-07T06:15:21;1.30;;;1.30;;
8656;SDS011;4366;50.764;7.184;2022-08-07T06:20:42;1.20;;;1.20;;
8656;SDS011;4366;50.764;7.184;2022-08-07T06:26:06;1.10;;;1.10;;
8656;SDS011;4366;50.764;7.184;2022-08-07T06:31:13;1.10;;;1.10;;
8656;SDS011;4366;50.764;7.184;2022-08-07T06:36:15;1.07;;;1.00;;
8656;SDS011;4366;50.764;7.184;2022-08-07T06:41:39;1.05;;;1.05;;
8656;SDS011;4366;50.764;7.184;2022-08-07T06:47:22;2.35;;;1.02;;
8656;SDS011;4366;50.764;7.184;2022-08-07T06:52:35;0.77;;;0.77;;
8656;SDS011;4366;50.764;7.184;2022-08-07T06:57:43;1.10;;;1.00;;
8656;SDS011;4366;50.764;7.184;2022-08-07T07:02:55;0.75;;;0.75;;
8656;SDS011;4366;50.764;7.184;2022-08-07T07:08:08;0.55;;;0.55;;
8656;SDS011;4366;50.764;7.184;2022-08-07T07:13:35;0.82;;;0.82;;
8656;SDS011;4366;50.764;7.184;2022-08-07T07:19:00;1.27;;;0.85;;
8656;SDS011;4366;50.764;7.184;2022-08-07T07:24:24;1.20;;;0.70;;
8656;SDS011;4366;50.764;7.184;2022-08-07T07:29:26;0.55;;;0.55;;
8656;SDS011;4366;50.764;7.184;2022-08-07T07:34:53;0.70;;;0.43;;
8656;SDS011;4366;50.764;7.184;2022-08-07T07:39:57;1.35;;;0.70;;
8656;SDS011;4366;50.764;7.184;2022-08-07T07:45:01;0.70;;;0.70;;
8656;SDS011;4366;50.764;7.184;2022-08-07T07:50:04;1.05;;;0.63;;
8656;SDS011;4366;50.764;7.184;2022-08-07T07:55:27;1.05;;;0.52;;
8656;SDS011;4366;50.764;7.184;2022-08-07T08:00:38;0.50;;;0.50;;
8656;SDS011;4366;50.764;7.184;2022-08-07T08:05:42;0.70;;;0.70;;
8656;SDS011;4366;50.764;7.184;2022-08-07T08:10:55;0.77;;;0.60;;
8656;SDS011;4366;50.764;7.184;2022-08-07T08:15:57;0.40;;;0.40;;
8656;SDS011;4366;50.764;7.184;2022-08-07T08:21:02;0.88;;;0.60;;
8656;SDS011;4366;50.764;7.184;2022-08-07T08:26:04;0.50;;;0.50;;
8656;SDS011;4366;50.764;7.184;2022-08-07T08:31:28;1.85;;;0.47;;
8656;SDS011;4366;50.764;7.184;2022-08-07T08:37:03;0.52;;;0.50;;
8656;SDS011;4366;50.764;7.184;2022-08-07T08:42:26;0.30;;;0.30;;
8656;SDS011;4366;50.764;7.184;2022-08-07T08:53:15;0.60;;;0.35;;
8656;SDS011;4366;50.764;7.184;2022-08-07T08:58:28;0.65;;;0.60;;
8656;SDS011;4366;50.764;7.184;2022-08-07T09:08:59;0.30;;;0.30;;
8656;SDS011;4366;50.764;7.184;2022-08-07T09:14:30;0.40;;;0.40;;
8656;SDS011;4366;50.764;7.184;2022-08-07T09:19:47;0.57;;;0.45;;
8656;SDS011;4366;50.764;7.184;2022-08-07T09:25:08;0.50;;;0.50;;
8656;SDS011;4366;50.764;7.184;2022-08-07T09:30:17;0.40;;;0.40;;
8656;SDS011;4366;50.764;7.184;2022-08-07T09:41:08;0.88;;;0.50;;
8656;SDS011;4366;50.764;7.184;2022-08-07T09:46:40;0.57;;;0.40;;
8656;SDS011;4366;50.764;7.184;2022-08-07T10:09:03;0.50;;;0.50;;
8656;SDS011;4366;50.764;7.184;2022-08-07T10:20:52;0.77;;;0.70;;
8656;SDS011;4366;50.764;7.184;2022-08-07T10:26:15;0.60;;;0.60;;
8656;SDS011;4366;50.764;7.184;2022-08-07T10:31:49;0.50;;;0.50;;
8656;SDS011;4366;50.764;7.184;2022-08-07T10:37:05;1.30;;;0.30;;
8656;SDS011;4366;50.764;7.184;2022-08-07T10:42:20;0.50;;;0.40;;
8656;SDS011;4366;50.764;7.184;2022-08-07T11:03:48;1.65;;;0.65;;
8656;SDS011;4366;50.764;7.184;2022-08-07T11:09:21;0.45;;;0.45;;
8656;SDS011;4366;50.764;7.184;2022-08-07T11:14:46;1.35;;;0.90;;
8656;SDS011;4366;50.764;7.184;2022-08-07T11:25:12;0.40;;;0.40;;
8656;SDS011;4366;50.764;7.184;2022-08-07T11:30:21;1.30;;;0.63;;
8656;SDS011;4366;50.764;7.184;2022-08-07T11:35:44;0.38;;;0.38;;
8656;SDS011;4366;50.764;7.184;2022-08-07T11:41:08;0.32;;;0.32;;
8656;SDS011;4366;50.764;7.184;2022-08-07T11:51:58;0.68;;;0.68;;
8656;SDS011;4366;50.764;7.184;2022-08-07T12:02:59;0.50;;;0.50;;
8656;SDS011;4366;50.764;7.184;2022-08-07T12:08:46;0.40;;;0.40;;
8656;SDS011;4366;50.764;7.184;2022-08-07T12:13:55;0.50;;;0.50;;
8656;SDS011;4366;50.764;7.184;2022-08-07T12:30:52;0.50;;;0.50;;
8656;SDS011;4366;50.764;7.184;2022-08-07T12:35:57;0.90;;;0.50;;
8656;SDS011;4366;50.764;7.184;2022-08-07T12:41:02;0.98;;;0.55;;
8656;SDS011;4366;50.764;7.184;2022-08-07T12:46:34;0.30;;;0.30;;
8656;SDS011;4366;50.764;7.184;2022-08-07T12:51:40;1.40;;;0.60;;
8656;SDS011;4366;50.764;7.184;2022-08-07T12:57:04;0.60;;;0.60;;
8656;SDS011;4366;50.764;7.184;2022-08-07T13:20:02;0.65;;;0.50;;
8656;SDS011;4366;50.764;7.184;2022-08-07T13:25:10;0.50;;;0.50;;
8656;SDS011;4366;50.764;7.184;2022-08-07T13:30:25;0.70;;;0.70;;
8656;SDS011;4366;50.764;7.184;2022-08-07T13:35:46;0.40;;;0.40;;
8656;SDS011;4366;50.764;7.184;2022-08-07T13:46:13;0.55;;;0.45;;
8656;SDS011;4366;50.764;7.184;2022-08-07T13:51:33;0.40;;;0.40;;
8656;SDS011;4366;50.764;7.184;2022-08-07T13:56:55;0.40;;;0.40;;
8656;SDS011;4366;50.764;7.184;2022-08-07T14:02:08;0.70;;;0.70;;
8656;SDS011;4366;50.764;7.184;2022-08-07T14:07:13;0.25;;;0.25;;
8656;SDS011;4366;50.764;7.184;2022-08-07T14:12:36;0.43;;;0.43;;
8656;SDS011;4366;50.764;7.184;2022-08-07T14:17:41;0.52;;;0.50;;
8656;SDS011;4366;50.764;7.184;2022-08-07T14:23:15;0.43;;;0.43;;
8656;SDS011;4366;50.764;7.184;2022-08-07T14:28:39;0.50;;;0.50;;
8656;SDS011;4366;50.764;7.184;2022-08-07T14:34:01;0.50;;;0.43;;
8656;SDS011;4366;50.764;7.184;2022-08-07T14:39:07;3.83;;;0.50;;
8656;SDS011;4366;50.764;7.184;2022-08-07T14:44:30;0.30;;;0.30;;
8656;SDS011;4366;50.764;7.184;2022-08-07T14:49:33;1.05;;;0.50;;
8656;SDS011;4366;50.764;7.184;2022-08-07T14:54:54;0.60;;;0.57;;
8656;SDS011;4366;50.764;7.184;2022-08-07T14:59:58;1.10;;;0.57;;
8656;SDS011;4366;50.764;7.184;2022-08-07T15:05:06;1.00;;;0.35;;
8656;SDS011;4366;50.764;7.184;2022-08-07T15:10:29;1.55;;;0.50;;
8656;SDS011;4366;50.764;7.184;2022-08-07T15:15:38;1.05;;;0.50;;
8656;SDS011;4366;50.764;7.184;2022-08-07T15:20:41;0.45;;;0.40;;
8656;SDS011;4366;50.764;7.184;2022-08-07T15:25:56;0.20;;;0.20;;
8656;SDS011;4366;50.764;7.184;2022-08-07T15:31:00;0.40;;;0.40;;
8656;SDS011;4366;50.764;7.184;2022-08-07T15:36:06;0.55;;;0.47;;
8656;SDS011;4366;50.764;7.184;2022-08-07T15:41:12;0.38;;;0.38;;
8656;SDS011;4366;50.764;7.184;2022-08-07T15:46:37;0.30;;;0.30;;
8656;SDS011;4366;50.764;7.184;2022-08-07T15:51:52;0.50;;;0.50;;
8656;SDS011;4366;50.764;7.184;2022-08-07T15:56:58;0.47;;;0.40;;
8656;SDS011;4366;50.764;7.184;2022-08-07T16:01:59;0.40;;;0.40;;
8656;SDS011;4366;50.764;7.184;2022-08-07T16:07:05;0.50;;;0.40;;
8656;SDS011;4366;50.764;7.184;2022-08-07T16:29:23;0.43;;;0.40;;
8656;SDS011;4366;50.764;7.184;2022-08-07T16:34:51;0.60;;;0.60;;
8656;SDS011;4366;50.764;7.184;2022-08-07T16:40:21;0.80;;;0.38;;
8656;SDS011;4366;50.764;7.184;2022-08-07T16:57:28;0.38;;;0.38;;
8656;SDS011;4366;50.764;7.184;2022-08-07T17:08:18;0.75;;;0.57;;
8656;SDS011;4366;50.764;7.184;2022-08-07T17:14:05;0.80;;;0.43;;
8656;SDS011;4366;50.764;7.184;2022-08-07T17:19:31;0.50;;;0.50;;
8656;SDS011;4366;50.764;7.184;2022-08-07T17:30:19;1.23;;;0.50;;
8656;SDS011;4366;50.764;7.184;2022-08-07T17:35:32;0.93;;;0.80;;
8656;SDS011;4366;50.764;7.184;2022-08-07T17:41:11;1.13;;;0.93;;
8656;SDS011;4366;50.764;7.184;2022-08-07T17:46:46;0.60;;;0.60;;
8656;SDS011;4366;50.764;7.184;2022-08-07T17:57:05;1.00;;;0.50;;
8656;SDS011;4366;50.764;7.184;2022-08-07T18:02:31;0.60;;;0.52;;
8656;SDS011;4366;50.764;7.184;2022-08-07T18:08:14;0.57;;;0.57;;
8656;SDS011;4366;50.764;7.184;2022-08-07T18:18:47;0.55;;;0.55;;
8656;SDS011;4366;50.764;7.184;2022-08-07T18:24:58;0.73;;;0.50;;
8656;SDS011;4366;50.764;7.184;2022-08-07T18:29:51;0.55;;;0.55;;
8656;SDS011;4366;50.764;7.184;2022-08-07T18:35:25;0.77;;;0.50;;
8656;SDS011;4366;50.764;7.184;2022-08-07T18:46:22;0.43;;;0.43;;
8656;SDS011;4366;50.764;7.184;2022-08-07T18:57:41;0.40;;;0.40;;
8656;SDS011;4366;50.764;7.184;2022-08-07T19:03:06;0.60;;;0.60;;
8656;SDS011;4366;50.764;7.184;2022-08-07T19:08:17;0.60;;;0.60;;
8656;SDS011;4366;50.764;7.184;2022-08-07T19:13:24;0.32;;;0.32;;
8656;SDS011;4366;50.764;7.184;2022-08-07T19:18:36;0.68;;;0.68;;
8656;SDS011;4366;50.764;7.184;2022-08-07T19:23:46;0.50;;;0.50;;
8656;SDS011;4366;50.764;7.184;2022-08-07T19:29:01;0.70;;;0.70;;
8656;SDS011;4366;50.764;7.184;2022-08-07T19:34:25;6.47;;;0.85;;
8656;SDS011;4366;50.764;7.184;2022-08-07T19:39:34;1.92;;;0.75;;
8656;SDS011;4366;50.764;7.184;2022-08-07T19:45:02;0.60;;;0.60;;
8656;SDS011;4366;50.764;7.184;2022-08-07T19:50:10;2.67;;;0.70;;
8656;SDS011;4366;50.764;7.184;2022-08-07T19:55:31;0.40;;;0.40;;
8656;SDS011;4366;50.764;7.184;2022-08-07T20:00:54;0.88;;;0.70;;
8656;SDS011;4366;50.764;7.184;2022-08-07T20:05:57;0.80;;;0.80;;
8656;SDS011;4366;50.764;7.184;2022-08-07T20:11:03;0.63;;;0.60;;
8656;SDS011;4366;50.764;7.184;2022-08-07T20:16:20;2.33;;;0.83;;
8656;SDS011;4366;50.764;7.184;2022-08-07T20:21:37;0.93;;;0.60;;
8656;SDS011;4366;50.764;7.184;2022-08-07T20:26:48;0.80;;;0.80;;
8656;SDS011;4366;50.764;7.184;2022-08-07T20:31:55;0.97;;;0.93;;
8656;SDS011;4366;50.764;7.184;2022-08-07T20:36:58;1.70;;;1.10;;
8656;SDS011;4366;50.764;7.184;2022-08-07T20:42:08;0.67;;;0.67;;
8656;SDS011;4366;50.764;7.184;2022-08-07T20:47:12;0.70;;;0.70;;
8656;SDS011;4366;50.764;7.184;2022-08-07T20:52:26;0.90;;;0.90;;
8656;SDS011;4366;50.764;7.184;2022-08-07T20:57:49;1.07;;;1.00;;
8656;SDS011;4366;50.764;7.184;2022-08-07T21:03:05;1.03;;;1.00;;
8656;SDS011;4366;50.764;7.184;2022-08-07T21:08:12;1.10;;;1.10;;
8656;SDS011;4366;50.764;7.184;2022-08-07T21:13:19;1.30;;;1.20;;
8656;SDS011;4366;50.764;7.184;2022-08-07T21:18:41;1.20;;;1.13;;
8656;SDS011;4366;50.764;7.184;2022-08-07T21:24:07;1.00;;;1.00;;
8656;SDS011;4366;50.764;7.184;2022-08-07T21:29:20;1.17;;;1.07;;
8656;SDS011;4366;50.764;7.184;2022-08-07T21:34:36;1.70;;;1.00;;
8656;SDS011;4366;50.764;7.184;2022-08-07T21:45:16;1.00;;;1.00;;
8656;SDS011;4366;50.764;7.184;2022-08-07T21:50:45;0.77;;;0.77;;
8656;SDS011;4366;50.764;7.184;2022-08-07T22:12:50;1.00;;;1.00;;
8656;SDS011;4366;50.764;7.184;2022-08-07T22:18:05;1.00;;;1.00;;
8656;SDS011;4366;50.764;7.184;2022-08-07T22:23:12;1.17;;;1.17;;
8656;SDS011;4366;50.764;7.184;2022-08-07T22:28:25;1.40;;;1.37;;
8656;SDS011;4366;50.764;7.184;2022-08-07T22:33:35;1.50;;;1.40;;
8656;SDS011;4366;50.764;7.184;2022-08-07T22:38:58;1.83;;;1.40;;
8656;SDS011;4366;50.764;7.184;2022-08-07T22:44:07;1.80;;;1.70;;
8656;SDS011;4366;50.764;7.184;2022-08-07T23:00:03;1.40;;;1.40;;
8656;SDS011;4366;50.764;7.184;2022-08-07T23:05:18;1.10;;;1.10;;
8656;SDS011;4366;50.764;7.184;2022-08-07T23:33:29;0.93;;;0.93;;
8656;SDS011;4366;50.764;7.184;2022-08-07T23:55:22;1.07;;;1.00;;
